Time;durP1;ratioP1;P1;durP2;ratioP2;P2;SDS_P1;SDS_P2;PMS_P1;PMS_P2;Temp;Humidity;BMP_temperature;BMP_pressure;BME280_temperature;BME280_humidity;BME280_pressure;Samples;Min_cycle;Max_cycle;Signal;HPM_P1;HPM_P2
2021/07/16 00:02:07;;;;;;;67.70;61.18;;;;;;;21.15;77.92;100304.26;128563;1095;23758;-80
2021/07/16 00:04:37;;;;;;;71.95;64.53;;;;;;;21.12;77.63;100310.10;128634;1095;24494;-79
2021/07/16 00:07:07;;;;;;;63.83;57.63;;;;;;;21.10;77.87;100307.67;128621;1094;22349;-78
2021/07/16 00:09:36;;;;;;;64.18;58.23;;;;;;;21.09;77.85;100307.89;128355;1095;22349;-78
2021/07/16 00:12:06;;;;;;;64.95;58.68;;;;;;;21.08;77.64;100307.08;128667;1095;22345;-78
2021/07/16 00:14:36;;;;;;;71.18;64.08;;;;;;;21.07;77.50;100304.64;128579;1095;22366;-78
2021/07/16 00:17:06;;;;;;;69.83;63.20;;;;;;;21.05;77.77;100309.42;128623;1095;22347;-78
2021/07/16 00:19:35;;;;;;;73.30;66.55;;;;;;;21.02;77.68;100299.16;128701;1093;24483;-78
2021/07/16 00:22:05;;;;;;;75.90;68.50;;;;;;;21.00;77.69;100298.59;128632;1094;22351;-78
2021/07/16 00:24:34;;;;;;;76.93;69.20;;;;;;;21.00;77.91;100290.54;128652;1093;22377;-78
2021/07/16 00:27:05;;;;;;;73.25;66.03;;;;;;;20.97;77.69;100289.14;128561;1095;22349;-78
2021/07/16 00:29:34;;;;;;;69.40;62.37;;;;;;;20.95;77.83;100287.73;128632;1095;22346;-78
2021/07/16 00:32:04;;;;;;;69.13;61.85;;;;;;;20.94;77.53;100280.74;128645;1095;23293;-78
2021/07/16 00:34:34;;;;;;;72.58;65.53;;;;;;;20.91;77.92;100276.66;128651;1093;24772;-78
2021/07/16 00:37:04;;;;;;;82.35;74.50;;;;;;;20.91;77.93;100274.78;128564;1095;22478;-78
2021/07/16 00:39:36;;;;;;;70.40;63.63;;;;;;;20.90;77.96;100275.03;128621;1095;22793;-78
2021/07/16 00:42:06;;;;;;;65.73;58.98;;;;;;;20.90;77.92;100275.03;128598;1094;22334;-78
2021/07/16 00:44:37;;;;;;;61.33;55.43;;;;;;;20.89;78.14;100263.48;128280;1095;22498;-78
2021/07/16 00:47:08;;;;;;;66.20;59.30;;;;;;;20.88;77.98;100269.89;128598;1095;22335;-79
2021/07/16 00:49:37;;;;;;;63.47;56.83;;;;;;;20.89;78.03;100273.38;128593;1095;23206;-78
2021/07/16 00:52:08;;;;;;;59.90;53.73;;;;;;;20.89;78.32;100268.02;128625;1093;25012;-79
2021/07/16 00:54:39;;;;;;;57.88;52.33;;;;;;;20.89;78.39;100270.70;128631;1093;22347;-77
2021/07/16 00:57:08;;;;;;;53.90;48.73;;;;;;;20.89;78.47;100263.48;128631;1093;22558;-78
2021/07/16 00:59:40;;;;;;;58.35;52.18;;;;;;;20.91;78.25;100265.92;128590;1093;22348;-78
2021/07/16 01:02:11;;;;;;;57.48;51.50;;;;;;;20.91;78.36;100271.28;128637;1095;22349;-79
2021/07/16 01:04:41;;;;;;;54.10;48.88;;;;;;;20.90;77.92;100269.66;128645;1095;22338;-80
2021/07/16 01:07:11;;;;;;;56.43;49.53;;;;;;;20.88;78.23;100272.57;128669;1094;22370;-78
2021/07/16 01:09:40;;;;;;;53.87;48.67;;;;;;;20.88;78.29;100271.77;128614;1093;25014;-78
2021/07/16 01:12:10;;;;;;;55.68;49.33;;;;;;;20.87;78.29;100268.27;128681;1093;22362;-77
2021/07/16 01:14:40;;;;;;;55.58;49.38;;;;;;;20.88;78.24;100269.08;128578;1095;22339;-78
2021/07/16 01:17:10;;;;;;;57.58;51.30;;;;;;;20.86;78.28;100263.14;128570;1095;22363;-78
2021/07/16 01:20:28;;;;;;;57.20;51.20;;;;;;;20.83;78.11;100263.62;128581;1094;23202;-78
2021/07/16 01:23:08;;;;;;;58.98;52.80;;;;;;;20.78;78.12;100258.94;128218;1098;23332;-78
2021/07/16 01:25:37;;;;;;;57.28;51.13;;;;;;;20.77;78.68;100256.51;128170;1096;22545;-78
2021/07/16 01:28:08;;;;;;;57.33;51.40;;;;;;;20.77;78.30;100254.64;128194;1098;23932;-77
2021/07/16 01:30:38;;;;;;;56.40;50.70;;;;;;;20.77;78.40;100256.51;128186;1097;22368;-77
2021/07/16 01:33:08;;;;;;;59.75;52.98;;;;;;;20.76;78.63;100257.54;128164;1098;22361;-77
2021/07/16 01:35:37;;;;;;;60.60;53.43;;;;;;;20.75;78.57;100261.29;128184;1098;22361;-77
2021/07/16 01:38:07;;;;;;;58.68;52.40;;;;;;;20.73;78.42;100253.48;128195;1098;22366;-76
2021/07/16 01:40:37;;;;;;;60.78;54.10;;;;;;;20.71;78.32;100257.45;128188;1098;22361;-78
2021/07/16 01:43:10;;;;;;;64.18;53.35;;;;;;;20.70;78.59;100255.83;128149;1098;24237;-78
2021/07/16 01:45:42;;;;;;;57.48;51.88;;;;;;;20.68;78.57;100258.73;128192;1098;22360;-79
2021/07/16 01:48:15;;;;;;;59.60;53.13;;;;;;;20.65;78.79;100265.38;128200;1098;23129;-78
2021/07/16 01:50:49;;;;;;;58.73;52.43;;;;;;;20.64;78.73;100258.39;128234;1098;22378;-78
2021/07/16 01:53:19;;;;;;;56.85;50.93;;;;;;;20.62;78.39;100244.38;128303;1095;22395;-78
2021/07/16 01:55:49;;;;;;;56.90;50.80;;;;;;;20.62;78.61;100239.02;128615;1095;22362;-77
2021/07/16 01:58:19;;;;;;;62.03;54.40;;;;;;;20.61;78.75;100229.34;128574;1095;22344;-78
2021/07/16 02:00:49;;;;;;;59.50;53.43;;;;;;;20.59;78.72;100225.25;128649;1095;22347;-76
2021/07/16 02:03:19;;;;;;;58.60;52.23;;;;;;;20.59;78.90;100233.30;128612;1095;22360;-77
2021/07/16 02:05:49;;;;;;;58.18;51.38;;;;;;;20.56;78.57;100229.25;128605;1095;24288;-77
2021/07/16 02:08:23;;;;;;;63.48;52.73;;;;;;;20.57;78.66;100230.88;128601;1095;22802;-75
2021/07/16 02:10:56;;;;;;;59.83;52.95;;;;;;;20.55;78.54;100238.33;128666;1094;24494;-76
2021/07/16 02:13:26;;;;;;;55.30;49.40;;;;;;;20.54;78.56;100246.63;128659;1095;22351;-75
2021/07/16 02:15:56;;;;;;;60.25;53.70;;;;;;;20.53;79.09;100253.06;128598;1095;22358;-76
2021/07/16 02:18:26;;;;;;;62.45;52.83;;;;;;;20.52;78.54;100251.41;128568;1095;22362;-76
2021/07/16 02:20:56;;;;;;;57.93;51.73;;;;;;;20.51;78.65;100255.96;128614;1095;24186;-76
2021/07/16 02:23:28;;;;;;;60.00;51.68;;;;;;;20.51;78.96;100242.55;128654;1095;25005;-76
2021/07/16 02:25:59;;;;;;;58.45;52.30;;;;;;;20.52;78.80;100251.41;128612;1095;22385;-76
2021/07/16 02:28:31;;;;;;;63.08;54.90;;;;;;;20.51;78.63;100245.23;128530;1095;22360;-76
2021/07/16 02:31:07;;;;;;;59.98;53.48;;;;;;;20.50;78.13;100242.77;128277;1095;22365;-76
2021/07/16 02:33:38;;;;;;;63.50;50.30;;;;;;;20.49;78.63;100246.48;128656;1093;24476;-77
2021/07/16 02:36:09;;;;;;;59.03;52.83;;;;;;;20.49;79.00;100263.39;128327;1095;22362;-76
2021/07/16 02:38:39;;;;;;;57.40;51.45;;;;;;;20.49;78.96;100257.20;128592;1093;22346;-76
2021/07/16 02:41:08;;;;;;;56.83;50.87;;;;;;;20.47;79.01;100256.65;128621;1093;22366;-76
2021/07/16 02:43:38;;;;;;;56.65;50.88;;;;;;;20.47;79.16;100252.09;128575;1095;22362;-76
2021/07/16 02:46:08;;;;;;;56.75;50.63;;;;;;;20.48;78.94;100259.08;128636;1092;22361;-76
2021/07/16 02:48:41;;;;;;;61.25;53.63;;;;;;;20.51;79.05;100269.38;128626;1094;24489;-76
2021/07/16 02:51:11;;;;;;;56.58;51.03;;;;;;;20.54;79.21;100271.59;128577;1095;22347;-76
2021/07/16 02:53:40;;;;;;;58.63;52.20;;;;;;;20.57;79.14;100270.31;128570;1095;22322;-76
2021/07/16 02:56:10;;;;;;;63.78;57.35;;;;;;;20.59;79.11;100266.35;128554;1095;22365;-76
2021/07/16 02:58:39;;;;;;;67.38;60.65;;;;;;;20.62;79.32;100273.91;128650;1093;22343;-76
2021/07/16 03:01:09;;;;;;;60.65;52.00;;;;;;;20.61;79.09;100283.02;128534;1094;22366;-76
2021/07/16 03:03:39;;;;;;;63.38;56.43;;;;;;;20.63;79.22;100285.48;128582;1095;24192;-76
2021/07/16 03:06:08;;;;;;;61.38;54.73;;;;;;;20.64;79.23;100279.86;128567;1093;22371;-76
2021/07/16 03:08:38;;;;;;;59.08;53.15;;;;;;;20.66;79.42;100283.14;128629;1095;22363;-75
2021/07/16 03:11:07;;;;;;;63.03;56.48;;;;;;;20.69;79.55;100281.83;128558;1095;22637;-76
2021/07/16 03:13:37;;;;;;;61.78;55.08;;;;;;;20.72;79.39;100296.66;128647;1092;22381;-76
2021/07/16 03:16:06;;;;;;;63.45;56.80;;;;;;;20.73;79.50;100282.20;128617;1094;22351;-76
2021/07/16 03:18:36;;;;;;;63.90;57.15;;;;;;;20.77;79.94;100280.67;128583;1094;24240;-77
2021/07/16 03:21:05;;;;;;;61.55;55.55;;;;;;;20.79;79.51;100274.02;128622;1093;22350;-77
2021/07/16 03:23:34;;;;;;;62.63;55.98;;;;;;;20.81;80.03;100271.08;128577;1095;22343;-76
2021/07/16 03:26:04;;;;;;;60.80;54.95;;;;;;;20.83;79.94;100279.73;128620;1093;22339;-76
2021/07/16 03:28:33;;;;;;;64.80;58.23;;;;;;;20.86;79.91;100284.63;128554;1095;22363;-76
2021/07/16 03:31:03;;;;;;;66.47;59.33;;;;;;;20.87;80.04;100284.38;128625;1095;22359;-75
2021/07/16 03:33:33;;;;;;;60.13;53.65;;;;;;;20.88;79.88;100277.94;128607;1095;24512;-75
2021/07/16 03:36:04;;;;;;;62.30;54.20;;;;;;;20.86;79.99;100272.02;128290;1094;22362;-76
2021/07/16 03:38:36;;;;;;;56.95;50.83;;;;;;;20.84;80.07;100276.80;128657;1095;22375;-77
2021/07/16 03:41:08;;;;;;;58.05;52.05;;;;;;;20.84;80.18;100275.98;128591;1095;22348;-75
2021/07/16 03:43:38;;;;;;;58.40;52.33;;;;;;;20.87;80.50;100284.38;128643;1095;22346;-75
2021/07/16 03:46:07;;;;;;;57.18;51.50;;;;;;;20.88;80.37;100288.69;128613;1095;22664;-75
2021/07/16 03:48:37;;;;;;;60.25;53.95;;;;;;;20.90;80.48;100291.14;128585;1095;23169;-76
2021/07/16 03:51:06;;;;;;;56.65;50.70;;;;;;;20.90;80.52;100294.64;128657;1094;22350;-75
2021/07/16 03:53:36;;;;;;;62.60;53.00;;;;;;;20.93;80.66;100290.67;128615;1095;22366;-76
2021/07/16 03:56:06;;;;;;;57.23;51.03;;;;;;;20.94;80.71;100281.55;128588;1095;24501;-75
2021/07/16 03:58:35;;;;;;;56.10;50.53;;;;;;;20.98;80.82;100288.08;128577;1095;22357;-76
2021/07/16 04:01:05;;;;;;;57.05;51.25;;;;;;;21.01;80.74;100292.16;128217;1095;22335;-75
2021/07/16 04:03:34;;;;;;;55.03;49.68;;;;;;;21.02;81.04;100291.91;128211;1095;22373;-76
2021/07/16 04:06:04;;;;;;;60.95;54.60;;;;;;;21.05;80.99;100294.13;128217;1095;24262;-76
2021/07/16 04:08:38;;;;;;;56.38;50.23;;;;;;;21.08;80.79;100288.28;128197;1095;22414;-76
2021/07/16 04:11:08;;;;;;;56.48;50.30;;;;;;;21.10;81.08;100291.55;128174;1095;22361;-76
2021/07/16 04:13:38;;;;;;;53.60;48.08;;;;;;;21.11;80.97;100287.80;128259;1095;22370;-75
2021/07/16 04:16:07;;;;;;;55.78;50.00;;;;;;;21.15;80.87;100294.33;128209;1094;22379;-76
2021/07/16 04:18:37;;;;;;;57.05;51.50;;;;;;;21.15;80.88;100294.33;128269;1095;22367;-76
2021/07/16 04:21:07;;;;;;;65.78;52.78;;;;;;;21.18;80.87;100295.72;128658;1095;22368;-78
2021/07/16 04:23:36;;;;;;;56.35;50.40;;;;;;;21.18;80.82;100301.09;128676;1094;22351;-76
2021/07/16 04:26:05;;;;;;;53.70;48.28;;;;;;;21.22;81.07;100293.38;128650;1093;22344;-76
2021/07/16 04:28:35;;;;;;;53.30;47.75;;;;;;;21.24;81.13;100312.77;128684;1092;22351;-77
2021/07/16 04:31:04;;;;;;;54.85;49.20;;;;;;;21.25;81.20;100311.70;128560;1095;22353;-77
2021/07/16 04:33:34;;;;;;;59.05;52.78;;;;;;;21.26;81.16;100316.01;128622;1094;22359;-76
2021/07/16 04:36:04;;;;;;;62.75;56.05;;;;;;;21.26;80.96;100318.70;128599;1095;22351;-77
2021/07/16 04:38:35;;;;;;;59.85;53.83;;;;;;;21.26;81.12;100316.01;128667;1093;22410;-77
2021/07/16 04:41:04;;;;;;;53.50;48.25;;;;;;;21.25;80.53;100317.08;128662;1093;24837;-78
2021/07/16 04:43:34;;;;;;;58.85;52.60;;;;;;;21.25;80.28;100314.39;128651;1095;24230;-78
2021/07/16 04:46:04;;;;;;;57.10;51.23;;;;;;;21.24;80.45;100313.58;128596;1095;22400;-75
2021/07/16 04:48:33;;;;;;;53.13;47.65;;;;;;;21.23;80.69;100325.39;128546;1092;22359;-76
2021/07/16 04:51:03;;;;;;;51.23;45.70;;;;;;;21.20;80.43;100316.99;128649;1092;22601;-76
2021/07/16 04:53:32;;;;;;;50.75;45.08;;;;;;;21.18;80.37;100313.72;128631;1093;24609;-76
2021/07/16 04:56:02;;;;;;;50.55;45.35;;;;;;;21.16;80.69;100316.66;128610;1092;22860;-76
2021/07/16 04:58:32;;;;;;;53.13;48.00;;;;;;;21.15;80.68;100315.81;128653;1092;22663;-76
2021/07/16 05:01:01;;;;;;;55.75;49.83;;;;;;;21.15;80.87;100317.69;128624;1092;22359;-77
2021/07/16 05:03:31;;;;;;;52.45;47.38;;;;;;;21.15;80.82;100318.50;128640;1092;22356;-77
2021/07/16 05:06:00;;;;;;;51.13;46.03;;;;;;;21.15;80.62;100317.69;128623;1092;22333;-78
2021/07/16 05:08:31;;;;;;;49.55;44.55;;;;;;;21.15;81.10;100313.13;128643;1092;22347;-76
2021/07/16 05:11:03;;;;;;;49.38;44.28;;;;;;;21.15;80.99;100312.31;128557;1092;22359;-76
2021/07/16 05:13:36;;;;;;;47.85;43.30;;;;;;;21.12;81.28;100312.78;128596;1092;22353;-78
2021/07/16 05:16:08;;;;;;;48.90;44.15;;;;;;;21.11;81.33;100303.92;128838;1092;22344;-76
2021/07/16 05:18:39;;;;;;;47.65;43.03;;;;;;;21.12;81.38;100302.05;128785;1092;22337;-75
2021/07/16 05:21:13;;;;;;;49.38;44.30;;;;;;;21.12;81.96;100300.17;128671;1092;22331;-77
2021/07/16 05:23:44;;;;;;;43.88;39.53;;;;;;;21.14;81.95;100302.63;128693;1092;22341;-76
2021/07/16 05:26:14;;;;;;;44.53;40.03;;;;;;;21.17;82.05;100290.60;128755;1093;24969;-77
2021/07/16 05:28:45;;;;;;;45.03;40.78;;;;;;;21.19;82.58;100277.73;128635;1092;22359;-77
2021/07/16 05:31:14;;;;;;;45.15;40.75;;;;;;;21.23;82.34;100273.53;128671;1092;22358;-78
2021/07/16 05:33:45;;;;;;;44.75;40.15;;;;;;;21.27;82.67;100277.36;128702;1095;22383;-77
2021/07/16 05:36:15;;;;;;;43.58;39.08;;;;;;;21.29;82.66;100284.13;128639;1094;22339;-77
2021/07/16 05:38:44;;;;;;;42.15;38.20;;;;;;;21.32;82.61;100278.25;128332;1095;22378;-78
2021/07/16 05:41:14;;;;;;;43.03;38.93;;;;;;;21.37;82.83;100285.64;128659;1095;22350;-76
2021/07/16 05:43:44;;;;;;;42.45;38.45;;;;;;;21.42;82.73;100276.84;128632;1092;23107;-77
2021/07/16 05:46:13;;;;;;;43.93;39.70;;;;;;;21.48;82.76;100274.02;128695;1090;22338;-77
2021/07/16 05:48:46;;;;;;;43.83;39.83;;;;;;;21.53;82.66;100268.74;128646;1092;24487;-79
2021/07/16 05:51:16;;;;;;;45.85;41.63;;;;;;;21.55;82.76;100271.98;128588;1092;22340;-78
2021/07/16 05:53:45;;;;;;;45.48;41.08;;;;;;;21.57;83.09;100280.63;128610;1092;24240;-78
2021/07/16 05:56:15;;;;;;;47.68;43.10;;;;;;;21.61;82.56;100276.40;128680;1092;22337;-78
2021/07/16 05:58:45;;;;;;;48.13;43.23;;;;;;;21.65;82.38;100278.60;128589;1092;22356;-78
2021/07/16 06:01:14;;;;;;;45.95;41.00;;;;;;;21.68;82.54;100275.43;128588;1092;22344;-78
2021/07/16 06:03:44;;;;;;;46.85;42.25;;;;;;;21.70;82.48;100286.77;128602;1092;24233;-77
2021/07/16 06:06:14;;;;;;;52.15;46.88;;;;;;;21.70;82.39;100290.27;128652;1092;22337;-77
2021/07/16 06:08:43;;;;;;;49.68;44.63;;;;;;;21.72;82.57;100295.39;128323;1095;24262;-78
2021/07/16 06:11:13;;;;;;;58.03;52.30;;;;;;;21.73;82.31;100300.54;128251;1095;22414;-77
2021/07/16 06:13:42;;;;;;;51.85;46.43;;;;;;;21.74;82.05;100309.42;128233;1095;24317;-77
2021/07/16 06:16:12;;;;;;;55.05;49.23;;;;;;;21.74;82.12;100312.91;128287;1095;23666;-76
2021/07/16 06:18:41;;;;;;;56.35;50.85;;;;;;;21.72;81.81;100312.33;128212;1095;22381;-76
2021/07/16 06:21:11;;;;;;;63.10;50.88;;;;;;;21.68;81.83;100313.07;128257;1095;24177;-78
2021/07/16 06:23:41;;;;;;;59.18;52.80;;;;;;;21.64;82.16;100307.36;128233;1095;22362;-78
2021/07/16 06:26:10;;;;;;;57.88;51.60;;;;;;;21.65;81.87;100321.61;128267;1095;22908;-77
2021/07/16 06:28:40;;;;;;;57.00;51.48;;;;;;;21.68;81.73;100316.56;128661;1092;22369;-77
2021/07/16 06:31:09;;;;;;;62.40;56.10;;;;;;;21.72;82.04;100319.59;128681;1092;22352;-77
2021/07/16 06:33:39;;;;;;;63.18;55.88;;;;;;;21.77;82.07;100322.38;128619;1092;22365;-78
2021/07/16 06:36:08;;;;;;;60.55;53.55;;;;;;;21.81;82.09;100323.52;128624;1095;22340;-75
2021/07/16 06:38:38;;;;;;;59.55;53.43;;;;;;;21.82;81.66;100322.45;128623;1093;22341;-74
2021/07/16 06:41:09;;;;;;;60.95;54.63;;;;;;;21.86;81.73;100339.75;128597;1095;22374;-75
2021/07/16 06:43:39;;;;;;;60.00;53.60;;;;;;;21.87;81.68;100340.56;128687;1095;22362;-75
2021/07/16 06:46:12;;;;;;;61.73;55.65;;;;;;;21.89;81.63;100331.17;128637;1093;23296;-75
2021/07/16 06:48:43;;;;;;;62.43;56.03;;;;;;;21.93;81.67;100335.03;128620;1095;24486;-75
2021/07/16 06:51:13;;;;;;;62.40;56.15;;;;;;;21.94;81.62;100335.84;128636;1095;22354;-73
2021/07/16 06:53:43;;;;;;;61.03;54.90;;;;;;;21.96;81.42;100345.31;128667;1095;22362;-74
2021/07/16 06:56:13;;;;;;;59.98;54.13;;;;;;;21.98;81.22;100337.79;128640;1095;23269;-74
2021/07/16 06:58:43;;;;;;;61.35;54.88;;;;;;;22.05;81.50;100337.63;128570;1094;22390;-75
2021/07/16 07:01:12;;;;;;;58.40;52.40;;;;;;;22.08;80.76;100346.03;128557;1095;22351;-75
2021/07/16 07:03:42;;;;;;;58.38;52.40;;;;;;;22.15;80.96;100347.75;128690;1095;22346;-76
2021/07/16 07:06:12;;;;;;;56.53;50.85;;;;;;;22.24;80.98;100349.02;128673;1095;23373;-74
2021/07/16 07:08:41;;;;;;;56.80;51.15;;;;;;;22.35;80.80;100349.98;128613;1094;22443;-75
2021/07/16 07:11:11;;;;;;;54.87;49.23;;;;;;;22.49;81.03;100351.27;128590;1095;22368;-75
2021/07/16 07:13:40;;;;;;;56.08;50.45;;;;;;;22.66;80.58;100351.23;128610;1095;22682;-76
2021/07/16 07:16:15;;;;;;;52.03;47.03;;;;;;;22.79;80.60;100357.11;128671;1095;22365;-75
2021/07/16 07:18:45;;;;;;;54.85;49.40;;;;;;;22.95;79.71;100368.92;128650;1095;24492;-75
2021/07/16 07:21:15;;;;;;;52.78;47.68;;;;;;;23.09;79.39;100361.31;128623;1095;22340;-76
2021/07/16 07:23:45;;;;;;;48.17;42.83;;;;;;;23.22;78.76;100366.30;128611;1094;23855;-76
2021/07/16 07:26:14;;;;;;;44.90;40.30;;;;;;;23.30;78.03;100378.54;128589;1095;25437;-76
2021/07/16 07:28:44;;;;;;;42.73;38.33;;;;;;;23.38;77.41;100379.97;128626;1095;22365;-76
2021/07/16 07:31:13;;;;;;;45.68;41.08;;;;;;;23.43;77.04;100380.85;128627;1094;22381;-76
2021/07/16 07:33:43;;;;;;;44.13;38.90;;;;;;;23.48;76.94;100372.80;128665;1093;22410;-76
2021/07/16 07:36:12;;;;;;;42.40;38.23;;;;;;;23.55;76.34;100379.89;128635;1095;24604;-77
2021/07/16 07:38:44;;;;;;;44.85;38.28;;;;;;;23.59;75.78;100381.84;128610;1094;22350;-75
2021/07/16 07:41:13;;;;;;;;;;;;;;;23.60;75.54;100380.77;128739;1095;22337;-76
2021/07/16 07:43:43;;;;;;;42.40;38.23;;;;;;;23.67;75.80;100384.08;128647;1095;21269;-75
2021/07/16 07:46:13;;;;;;;45.08;40.30;;;;;;;23.80;75.76;100377.50;128626;1095;22349;-74
2021/07/16 07:48:43;;;;;;;46.43;41.80;;;;;;;23.96;74.95;100375.77;128621;1095;22380;-78
2021/07/16 07:51:12;;;;;;;38.93;35.15;;;;;;;24.16;74.57;100369.73;128713;1093;22360;-80
2021/07/16 07:53:42;;;;;;;38.95;34.85;;;;;;;24.34;73.57;100374.73;128722;1092;22342;-78
2021/07/16 07:56:31;;;;;;;37.87;33.23;;;;;;;24.55;72.76;100383.00;128668;1092;22343;-78
2021/07/16 07:59:03;;;;;;;39.88;35.35;;;;;;;24.70;71.88;100380.41;128780;1092;22334;-76
2021/07/16 08:01:35;;;;;;;48.45;31.13;;;;;;;24.84;71.35;100383.47;128746;1092;22343;-75
2021/07/16 08:04:05;;;;;;;36.80;30.48;;;;;;;24.99;71.23;100371.91;128753;1092;22347;-75
2021/07/16 08:06:39;;;;;;;35.00;31.18;;;;;;;25.27;71.24;100368.83;128617;1095;25215;-75
2021/07/16 08:09:08;;;;;;;34.23;30.60;;;;;;;25.61;70.87;100362.17;128692;1095;22343;-76
2021/07/16 08:11:38;;;;;;;41.25;31.00;;;;;;;26.05;70.08;100373.34;128983;1095;22349;-77
2021/07/16 08:14:08;;;;;;;31.73;28.20;;;;;;;26.45;68.08;100377.13;128897;1095;22373;-76
2021/07/16 08:16:42;;;;;;;33.58;29.93;;;;;;;26.65;66.57;100370.91;128963;1095;23119;-77
2021/07/16 08:19:12;;;;;;;32.05;28.70;;;;;;;26.79;65.81;100373.84;128992;1092;22347;-76
2021/07/16 08:21:42;;;;;;;33.10;29.65;;;;;;;26.91;65.07;100379.78;128649;1094;22376;-77
2021/07/16 08:24:11;;;;;;;32.20;28.80;;;;;;;26.91;64.42;100385.20;128772;1092;22356;-77
2021/07/16 08:26:42;;;;;;;44.50;29.98;;;;;;;26.85;64.08;100381.69;128731;1094;22362;-77
2021/07/16 08:29:12;;;;;;;49.53;32.45;;;;;;;26.76;64.32;100383.36;128392;1092;22350;-78
2021/07/16 08:31:43;;;;;;;30.10;27.13;;;;;;;26.68;64.47;100387.42;128656;1095;22348;-77
2021/07/16 08:34:16;;;;;;;34.78;29.40;;;;;;;26.57;63.96;100385.83;128719;1092;22360;-77
2021/07/16 08:36:45;;;;;;;34.83;28.40;;;;;;;26.46;64.42;100385.00;128719;1092;22340;-76
2021/07/16 08:39:15;;;;;;;35.63;30.08;;;;;;;26.40;64.68;100382.57;128648;1095;22343;-77
2021/07/16 08:41:45;;;;;;;34.10;30.00;;;;;;;26.35;64.52;100390.68;128632;1095;22368;-77
2021/07/16 08:44:14;;;;;;;37.63;30.23;;;;;;;26.34;64.50;100391.78;128375;1095;22351;-77
2021/07/16 08:46:47;;;;;;;30.60;27.45;;;;;;;26.35;64.75;100391.49;128748;1094;22350;-77
2021/07/16 08:49:17;;;;;;;32.95;28.30;;;;;;;26.36;64.30;100395.84;128778;1092;24506;-77
2021/07/16 08:51:46;;;;;;;29.28;26.45;;;;;;;26.49;64.28;100406.16;128713;1092;22366;-78
2021/07/16 08:54:18;;;;;;;38.68;27.13;;;;;;;26.61;64.19;100397.73;128776;1092;22356;-74
2021/07/16 08:56:48;;;;;;;31.48;27.55;;;;;;;26.90;64.48;100403.38;128679;1092;22339;-75
2021/07/16 08:59:17;;;;;;;32.45;28.45;;;;;;;27.36;63.96;100402.44;128725;1092;22337;-75
2021/07/16 09:01:47;;;;;;;133.10;67.93;;;;;;;27.89;63.17;100399.97;128678;1092;22657;-72
2021/07/16 09:04:23;;;;;;;307.38;145.80;;;;;;;28.42;61.81;100402.85;128766;1092;22344;-74
2021/07/16 09:06:56;;;;;;;184.40;99.63;;;;;;;28.92;60.37;100394.47;128672;1092;24482;-74
2021/07/16 09:09:38;;;;;;;121.48;68.05;;;;;;;29.34;59.01;100396.45;128680;1092;22363;-74
2021/07/16 09:12:12;;;;;;;31.37;27.60;;;;;;;29.59;57.43;100392.59;128659;1092;22341;-74
2021/07/16 09:14:42;;;;;;;28.88;23.45;;;;;;;29.67;56.18;100388.42;128640;1092;22340;-73
2021/07/16 09:17:15;;;;;;;30.48;24.33;;;;;;;29.66;55.34;100392.27;128820;1092;22345;-73
2021/07/16 09:19:52;;;;;;;27.75;25.15;;;;;;;29.66;55.17;100384.09;128903;1092;22356;-73
2021/07/16 09:22:34;;;;;;;25.17;22.40;;;;;;;29.69;55.20;100380.75;128640;1092;22341;-74
2021/07/16 09:25:06;;;;;;;28.65;22.75;;;;;;;29.83;55.42;100383.57;128666;1092;24164;-73
2021/07/16 09:27:48;;;;;;;26.70;19.93;;;;;;;30.05;54.45;100383.74;128797;1092;22343;-73
2021/07/16 09:30:28;;;;;;;23.60;19.20;;;;;;;30.30;53.30;100379.83;128699;1092;22689;-74
2021/07/16 09:33:09;;;;;;;25.88;20.55;;;;;;;30.60;52.71;100383.13;128721;1092;22353;-75
2021/07/16 09:35:41;;;;;;;21.08;17.83;;;;;;;30.94;52.41;100390.95;128666;1092;22346;-74
2021/07/16 09:38:18;;;;;;;21.10;17.85;;;;;;;31.22;51.21;100382.73;128760;1092;22339;-73
2021/07/16 09:40:52;;;;;;;21.23;18.13;;;;;;;31.41;50.42;100380.72;128757;1092;23084;-74
2021/07/16 09:43:24;;;;;;;22.30;17.13;;;;;;;31.16;49.70;100384.78;128701;1095;22347;-74
2021/07/16 09:46:00;;;;;;;20.85;15.90;;;;;;;31.01;49.78;100382.36;128686;1092;24943;-74
2021/07/16 09:48:35;;;;;;;23.00;15.60;;;;;;;30.89;50.67;100386.41;128601;1092;25819;-73
2021/07/16 09:51:20;;;;;;;16.40;14.60;;;;;;;30.87;50.53;100390.55;128720;1095;22366;-75
2021/07/16 09:54:16;;;;;;;17.10;15.50;;;;;;;30.77;50.13;100390.74;128627;1092;22340;-73
2021/07/16 09:56:46;;;;;;;17.95;15.50;;;;;;;30.67;50.09;100389.78;128276;1095;22346;-75
2021/07/16 09:59:18;;;;;;;17.90;15.33;;;;;;;30.55;49.75;100383.20;128293;1095;22347;-74
2021/07/16 10:01:49;;;;;;;17.30;15.03;;;;;;;30.51;49.37;100380.27;128338;1095;22362;-73
2021/07/16 10:04:27;;;;;;;16.08;14.45;;;;;;;30.43;49.03;100381.78;128289;1098;22372;-74
2021/07/16 10:06:57;;;;;;;16.28;14.53;;;;;;;30.34;49.53;100382.77;128219;1098;22375;-74
2021/07/16 10:09:27;;;;;;;19.73;15.45;;;;;;;30.23;49.34;100373.96;128294;1096;22370;-76
2021/07/16 10:11:58;;;;;;;17.83;16.13;;;;;;;30.10;50.05;100386.40;128260;1098;22369;-75
2021/07/16 10:14:28;;;;;;;18.43;16.68;;;;;;;29.87;50.80;100379.95;128313;1098;22418;-75
2021/07/16 10:16:57;;;;;;;17.20;15.50;;;;;;;29.83;51.24;100381.66;128257;1098;22418;-75
2021/07/16 10:19:28;;;;;;;20.50;18.28;;;;;;;29.78;51.36;100373.55;128270;1097;22361;-76
2021/07/16 10:21:58;;;;;;;47.43;29.07;;;;;;;29.86;50.96;100370.17;128296;1096;24365;-75
2021/07/16 10:24:29;;;;;;;32.13;16.23;;;;;;;29.93;50.86;100375.23;128203;1097;22369;-75
2021/07/16 10:27:18;;;;;;;;;;;;;;;30.16;50.30;100365.34;128287;1098;22369;-77
2021/07/16 10:29:48;;;;;;;15.85;14.03;;;;;;;30.25;49.25;100377.98;128238;1098;23109;-75
2021/07/16 10:32:53;;;;;;;22.00;15.63;;;;;;;30.24;49.92;100367.39;128171;1098;24285;-75
2021/07/16 10:35:36;;;;;;;16.35;12.98;;;;;;;30.15;49.67;100372.67;128741;1093;22211;-73
2021/07/16 10:38:33;;;;;;;21.50;16.95;;;;;;;30.29;49.56;100380.11;128799;1094;23263;-76
2021/07/16 10:41:03;;;;;;;22.73;16.73;;;;;;;30.32;49.62;100382.24;128541;1095;24503;-76
2021/07/16 10:43:33;;;;;;;22.13;17.43;;;;;;;30.22;49.59;100381.33;128604;1095;22381;-76
2021/07/16 10:46:36;;;;;;;20.23;16.30;;;;;;;30.15;50.28;100382.77;128666;1093;24140;-76
2021/07/16 10:49:09;;;;;;;20.70;15.90;;;;;;;30.07;49.77;100386.98;128641;1095;22356;-74
2021/07/16 10:51:40;;;;;;;16.28;14.13;;;;;;;30.07;49.72;100386.19;128658;1095;22517;-75
2021/07/16 10:54:15;;;;;;;18.88;14.78;;;;;;;30.06;49.43;100379.09;128597;1095;22987;-74
2021/07/16 10:56:48;;;;;;;15.88;14.33;;;;;;;30.05;49.59;100381.02;128662;1095;24192;-75
2021/07/16 10:59:45;;;;;;;17.95;15.03;;;;;;;30.04;49.42;100375.88;128611;1093;22372;-75
2021/07/16 11:02:49;;;;;;;18.05;12.78;;;;;;;30.01;49.78;100377.27;128764;1092;22353;-76
2021/07/16 11:05:53;;;;;;;14.50;12.98;;;;;;;30.03;48.90;100366.91;128323;1093;22354;-74
2021/07/16 11:08:36;;;;;;;14.23;12.63;;;;;;;29.74;49.40;100361.63;127962;1098;25011;-75
2021/07/16 11:11:16;;;;;;;17.08;13.53;;;;;;;29.63;48.90;100360.98;128006;1098;24265;-73
2021/07/16 11:13:55;;;;;;;15.95;11.25;;;;;;;29.67;48.40;100361.20;128013;1098;22449;-76
2021/07/16 11:16:44;;;;;;;12.78;11.05;;;;;;;29.64;47.49;100357.15;127980;1100;22432;-74
2021/07/16 11:19:21;;;;;;;14.50;12.90;;;;;;;29.64;47.72;100356.34;127535;1105;24535;-76
2021/07/16 11:21:52;;;;;;;21.68;13.05;;;;;;;29.55;48.04;100358.88;127468;1105;22361;-76
2021/07/16 11:24:24;;;;;;;14.30;11.60;;;;;;;29.47;48.52;100352.19;127454;1104;22363;-74